Time;durP1;ratioP1;P1;durP2;ratioP2;P2;SDS_P1;SDS_P2;PMS_P1;PMS_P2;Temp;Humidity;BMP_temperature;BMP_pressure;BME280_temperature;BME280_humidity;BME280_pressure;Samples;Min_cycle;Max_cycle;Signal;HPM_P1;HPM_P2
2023/04/25 00:01:57;;;;;;;2.05;1.77;;;;;;;;;;10257009;28;20291;-79
2023/04/25 00:07:01;;;;;;;2.40;2.20;;;;;;;;;;10254990;28;20232;-78
2023/04/25 00:12:02;;;;;;;2.90;2.08;;;;;;;;;;10266525;28;20233;-78
2023/04/25 00:17:04;;;;;;;3.22;2.92;;;;;;;;;;10257280;28;20275;-75
2023/04/25 00:22:05;;;;;;;4.43;2.40;;;;;;;;;;10269700;28;20226;-78
2023/04/25 00:27:06;;;;;;;4.97;2.42;;;;;;;;;;10242277;28;20380;-79
2023/04/25 00:32:07;;;;;;;2.80;2.35;;;;;;;;;;10262550;28;20213;-78
2023/04/25 00:37:08;;;;;;;4.18;2.10;;;;;;;;;;10285524;28;20714;-78
2023/04/25 00:42:10;;;;;;;4.38;2.50;;;;;;;;;;10261156;28;20236;-78
2023/04/25 00:47:12;;;;;;;2.75;2.13;;;;;;;;;;10280605;28;20340;-78
2023/04/25 00:52:13;;;;;;;2.17;1.98;;;;;;;;;;10264037;28;20312;-79
2023/04/25 00:57:15;;;;;;;5.10;2.65;;;;;;;;;;10265852;28;20309;-78
2023/04/25 01:02:16;;;;;;;2.58;2.38;;;;;;;;;;10276989;28;20317;-79
2023/04/25 01:07:17;;;;;;;2.47;2.35;;;;;;;;;;10283038;28;20329;-79
2023/04/25 01:12:19;;;;;;;4.80;2.55;;;;;;;;;;10264711;28;20236;-78
2023/04/25 01:17:21;;;;;;;2.67;2.47;;;;;;;;;;10283324;28;20285;-78
2023/04/25 01:22:22;;;;;;;2.28;1.90;;;;;;;;;;10256520;28;20221;-78
2023/04/25 01:27:23;;;;;;;5.13;1.90;;;;;;;;;;10246411;28;20225;-78
2023/04/25 01:32:24;;;;;;;2.67;2.22;;;;;;;;;;10263307;28;20232;-78
2023/04/25 01:37:25;;;;;;;3.50;2.33;;;;;;;;;;10245491;28;20584;-78
2023/04/25 01:42:27;;;;;;;2.53;1.85;;;;;;;;;;10265291;28;20226;-78
2023/04/25 01:47:28;;;;;;;1.67;1.38;;;;;;;;;;10271091;28;20240;-78
2023/04/25 01:52:29;;;;;;;3.60;1.95;;;;;;;;;;10269883;28;20232;-78
2023/04/25 01:57:31;;;;;;;5.40;1.90;;;;;;;;;;10272330;28;20271;-78
2023/04/25 02:02:32;;;;;;;1.98;1.60;;;;;;;;;;10259300;28;20312;-79
2023/04/25 02:07:34;;;;;;;3.58;1.83;;;;;;;;;;10240388;28;20225;-79
2023/04/25 02:12:36;;;;;;;6.28;2.25;;;;;;;;;;10276537;28;20540;-78
2023/04/25 02:17:54;;;;;;;1.75;1.65;;;;;;;;;;10273907;28;20224;-79
2023/04/25 02:22:55;;;;;;;2.00;1.90;;;;;;;;;;10267193;28;20245;-80
2023/04/25 02:27:56;;;;;;;5.38;2.00;;;;;;;;;;10245918;28;20244;-78
2023/04/25 02:32:57;;;;;;;5.00;1.92;;;;;;;;;;10276051;28;20225;-78
2023/04/25 02:37:58;;;;;;;3.00;1.98;;;;;;;;;;10269718;28;20236;-79
2023/04/25 02:42:59;;;;;;;3.70;2.08;;;;;;;;;;10245196;28;20221;-78
2023/04/25 02:48:01;;;;;;;2.15;1.55;;;;;;;;;;10252186;28;20217;-78
2023/04/25 02:53:02;;;;;;;4.05;2.53;;;;;;;;;;10266748;28;20217;-78
2023/04/25 02:58:10;;;;;;;1.98;1.88;;;;;;;;;;10274508;28;20233;-78
2023/04/25 03:03:21;;;;;;;2.33;1.70;;;;;;;;;;10220553;28;20259;-79
2023/04/25 03:08:22;;;;;;;2.15;1.90;;;;;;;;;;10265174;28;20231;-78
2023/04/25 03:13:24;;;;;;;4.30;2.15;;;;;;;;;;10249538;28;20225;-78
2023/04/25 03:18:25;;;;;;;2.30;2.15;;;;;;;;;;10258142;28;20922;-78
2023/04/25 03:23:26;;;;;;;2.83;2.00;;;;;;;;;;10274307;28;20224;-78
2023/04/25 03:28:28;;;;;;;9.32;2.30;;;;;;;;;;10266834;28;20223;-78
2023/04/25 03:33:31;;;;;;;2.75;2.13;;;;;;;;;;10286271;28;20319;-78
2023/04/25 03:38:32;;;;;;;5.32;2.95;;;;;;;;;;10280027;28;20259;-80
2023/04/25 03:43:34;;;;;;;2.88;2.67;;;;;;;;;;10284628;28;20587;-78
2023/04/25 03:48:40;;;;;;;4.15;2.03;;;;;;;;;;10283450;28;20217;-79
2023/04/25 03:53:43;;;;;;;4.32;2.80;;;;;;;;;;10283181;28;20228;-77
2023/04/25 03:58:49;;;;;;;3.35;2.45;;;;;;;;;;10275442;28;20328;-78
2023/04/25 04:03:53;;;;;;;6.20;3.05;;;;;;;;;;10253688;28;20577;-78
2023/04/25 04:08:55;;;;;;;4.10;2.65;;;;;;;;;;10268509;28;20225;-79
2023/04/25 04:13:56;;;;;;;8.25;2.53;;;;;;;;;;10292876;28;20722;-78
2023/04/25 04:18:57;;;;;;;6.05;3.28;;;;;;;;;;10282275;28;20221;-78
2023/04/25 04:23:59;;;;;;;4.35;2.60;;;;;;;;;;10266124;28;20818;-80
2023/04/25 04:29:02;;;;;;;6.82;3.13;;;;;;;;;;10281378;28;20222;-78
2023/04/25 04:34:24;;;;;;;4.85;3.13;;;;;;;;;;10282078;28;20217;-78
2023/04/25 04:39:25;;;;;;;4.45;2.72;;;;;;;;;;10273180;28;20397;-78
2023/04/25 04:44:45;;;;;;;5.68;2.92;;;;;;;;;;10255300;28;20245;-77
2023/04/25 04:50:01;;;;;;;5.93;3.33;;;;;;;;;;10286988;28;20281;-77
2023/04/25 04:55:21;;;;;;;5.10;2.78;;;;;;;;;;10264266;28;20218;-77
2023/04/25 05:00:42;;;;;;;3.47;3.17;;;;;;;;;;10266734;28;20236;-78
2023/04/25 05:06:06;;;;;;;8.27;3.97;;;;;;;;;;10233829;28;20243;-77
2023/04/25 05:11:26;;;;;;;7.50;4.57;;;;;;;;;;10258618;28;20642;-77
2023/04/25 05:16:38;;;;;;;7.15;3.72;;;;;;;;;;10272643;28;20271;-78
2023/04/25 05:22:12;;;;;;;8.38;4.15;;;;;;;;;;10247791;28;20241;-79
2023/04/25 05:27:33;;;;;;;5.47;4.30;;;;;;;;;;10261837;28;20823;-80
2023/04/25 05:32:50;;;;;;;8.35;4.50;;;;;;;;;;10260815;28;20224;-79
2023/04/25 05:37:51;;;;;;;5.18;3.13;;;;;;;;;;10269025;28;20695;-77
2023/04/25 05:42:56;;;;;;;2.10;2.00;;;;;;;;;;10268316;28;20225;-80
2023/04/25 05:48:03;;;;;;;2.70;1.77;;;;;;;;;;10242483;28;20214;-79
2023/04/25 05:53:13;;;;;;;5.88;2.10;;;;;;;;;;10250576;28;20226;-80
2023/04/25 05:58:16;;;;;;;2.03;1.85;;;;;;;;;;10250198;28;20225;-79
2023/04/25 06:03:17;;;;;;;5.60;1.40;;;;;;;;;;10241759;28;20226;-80
2023/04/25 06:08:20;;;;;;;7.43;1.35;;;;;;;;;;10248928;28;20232;-79
2023/04/25 06:13:21;;;;;;;1.33;1.20;;;;;;;;;;10250360;28;20304;-79
2023/04/25 06:18:48;;;;;;;4.50;1.48;;;;;;;;;;10259530;28;20261;-76
2023/04/25 06:23:50;;;;;;;7.10;1.67;;;;;;;;;;10233530;28;20218;-77
2023/04/25 06:28:55;;;;;;;4.57;1.50;;;;;;;;;;10264542;28;20233;-77
2023/04/25 06:33:56;;;;;;;9.38;1.58;;;;;;;;;;10262543;28;20781;-77
2023/04/25 06:39:00;;;;;;;11.85;2.08;;;;;;;;;;10245544;28;21454;-78
2023/04/25 06:44:01;;;;;;;7.10;1.58;;;;;;;;;;10253422;28;20313;-76
2023/04/25 06:49:07;;;;;;;4.53;1.25;;;;;;;;;;10250248;28;20228;-78
2023/04/25 06:54:08;;;;;;;5.78;1.38;;;;;;;;;;10262159;28;20218;-77
2023/04/25 06:59:16;;;;;;;8.52;1.92;;;;;;;;;;10262581;28;20615;-77
2023/04/25 07:04:19;;;;;;;7.80;1.73;;;;;;;;;;10239253;28;20220;-77
2023/04/25 07:09:25;;;;;;;7.43;1.50;;;;;;;;;;10273172;28;20357;-78
2023/04/25 07:14:26;;;;;;;5.05;1.45;;;;;;;;;;10270827;28;20966;-77
2023/04/25 07:19:29;;;;;;;9.88;1.73;;;;;;;;;;10258564;28;20325;-79
2023/04/25 07:24:33;;;;;;;7.82;1.20;;;;;;;;;;10231888;28;20350;-77
2023/04/25 07:29:37;;;;;;;6.97;1.20;;;;;;;;;;10237376;28;20787;-75
2023/04/25 07:34:38;;;;;;;8.48;1.02;;;;;;;;;;10270544;28;21000;-78
2023/04/25 07:39:39;;;;;;;5.95;1.20;;;;;;;;;;10269859;28;20217;-76
2023/04/25 07:44:42;;;;;;;5.05;1.17;;;;;;;;;;10267417;28;20226;-78
2023/04/25 07:49:45;;;;;;;2.58;0.80;;;;;;;;;;10268088;28;22041;-77
2023/04/25 07:54:47;;;;;;;9.23;1.75;;;;;;;;;;10265243;28;20900;-77
2023/04/25 07:59:52;;;;;;;2.13;1.30;;;;;;;;;;10249733;28;20228;-76
2023/04/25 08:04:55;;;;;;;6.10;1.15;;;;;;;;;;10231538;28;20217;-76
2023/04/25 08:09:56;;;;;;;6.10;1.23;;;;;;;;;;10270731;28;20225;-77
2023/04/25 08:15:02;;;;;;;7.82;1.25;;;;;;;;;;10239367;28;20226;-77
2023/04/25 08:20:08;;;;;;;9.05;1.40;;;;;;;;;;10273517;28;20232;-76
2023/04/25 08:25:10;;;;;;;6.75;0.98;;;;;;;;;;10270828;28;20624;-77
2023/04/25 08:30:11;;;;;;;4.50;1.10;;;;;;;;;;10269488;28;20586;-77
2023/04/25 08:35:16;;;;;;;4.43;1.40;;;;;;;;;;10272019;28;20297;-77
2023/04/25 08:40:17;;;;;;;2.05;0.73;;;;;;;;;;10270489;28;20222;-77
2023/04/25 08:45:31;;;;;;;12.63;1.10;;;;;;;;;;10267976;28;20243;-79
2023/04/25 08:50:33;;;;;;;4.03;1.08;;;;;;;;;;10251427;28;20226;-77
2023/04/25 08:55:34;;;;;;;7.97;1.10;;;;;;;;;;10241876;28;20715;-78
2023/04/25 09:00:35;;;;;;;1.27;0.88;;;;;;;;;;10273002;28;20640;-78
2023/04/25 09:05:37;;;;;;;2.75;0.80;;;;;;;;;;10259928;28;20713;-78
2023/04/25 09:10:38;;;;;;;4.22;0.98;;;;;;;;;;10238391;28;20225;-78
2023/04/25 09:15:47;;;;;;;4.30;1.08;;;;;;;;;;10250017;28;20229;-77
2023/04/25 09:21:10;;;;;;;3.70;1.02;;;;;;;;;;10269807;28;20284;-77
2023/04/25 09:26:14;;;;;;;1.42;0.80;;;;;;;;;;10262874;28;20229;-78
2023/04/25 09:31:25;;;;;;;2.63;0.80;;;;;;;;;;10256905;28;20276;-77
2023/04/25 09:36:28;;;;;;;2.35;0.77;;;;;;;;;;10268111;28;20245;-78
2023/04/25 09:41:58;;;;;;;2.33;1.00;;;;;;;;;;10235201;28;20226;-78
2023/04/25 09:47:01;;;;;;;3.55;0.80;;;;;;;;;;10278851;28;20750;-76
2023/04/25 09:52:05;;;;;;;4.38;0.60;;;;;;;;;;10226849;28;20256;-77
2023/04/25 09:57:12;;;;;;;2.15;1.00;;;;;;;;;;10277372;28;20232;-77
2023/04/25 10:02:15;;;;;;;5.78;0.70;;;;;;;;;;10277187;28;20884;-76
2023/04/25 10:07:17;;;;;;;7.97;0.90;;;;;;;;;;10246518;28;20295;-77
2023/04/25 10:12:19;;;;;;;8.00;0.88;;;;;;;;;;10258239;28;20222;-77
2023/04/25 10:17:20;;;;;;;3.60;0.85;;;;;;;;;;10258687;28;20225;-77
2023/04/25 10:22:33;;;;;;;6.38;0.80;;;;;;;;;;10274669;28;20218;-77
2023/04/25 10:27:34;;;;;;;5.28;1.10;;;;;;;;;;10254368;28;21073;-78
2023/04/25 10:32:35;;;;;;;6.72;0.98;;;;;;;;;;10251823;28;20244;-77
2023/04/25 10:37:37;;;;;;;1.98;0.70;;;;;;;;;;10257345;28;21088;-73
2023/04/25 10:42:38;;;;;;;5.70;0.70;;;;;;;;;;10256508;28;20652;-78
2023/04/25 10:47:47;;;;;;;5.68;0.93;;;;;;;;;;10263497;28;20229;-78
2023/04/25 10:52:48;;;;;;;4.57;1.08;;;;;;;;;;10255725;28;20221;-75
2023/04/25 10:57:49;;;;;;;6.07;0.95;;;;;;;;;;10257896;28;20312;-78
2023/04/25 11:02:54;;;;;;;8.27;1.00;;;;;;;;;;10248116;28;20951;-77
2023/04/25 11:07:59;;;;;;;2.90;0.90;;;;;;;;;;10254525;28;20225;-77
2023/04/25 11:13:00;;;;;;;1.27;0.65;;;;;;;;;;10263186;28;20228;-79
2023/04/25 11:18:01;;;;;;;3.10;0.60;;;;;;;;;;10251982;28;20224;-77
2023/04/25 11:23:02;;;;;;;1.70;0.45;;;;;;;;;;10267922;28;20232;-78
2023/04/25 11:28:04;;;;;;;1.65;0.70;;;;;;;;;;10249505;28;20218;-77
2023/04/25 11:33:05;;;;;;;3.38;0.65;;;;;;;;;;10263162;28;20289;-77
2023/04/25 11:38:06;;;;;;;3.10;0.95;;;;;;;;;;10241969;28;20791;-79
2023/04/25 11:43:07;;;;;;;5.05;0.60;;;;;;;;;;10263960;28;20228;-79
2023/04/25 11:48:08;;;;;;;1.80;0.60;;;;;;;;;;10256225;28;20236;-78
2023/04/25 11:53:10;;;;;;;2.17;0.60;;;;;;;;;;10260817;28;20221;-78
2023/04/25 11:58:13;;;;;;;0.50;0.50;;;;;;;;;;10244957;28;20221;-78
2023/04/25 12:03:14;;;;;;;4.70;0.80;;;;;;;;;;10256046;28;20273;-76
2023/04/25 12:08:18;;;;;;;2.08;0.68;;;;;;;;;;10260254;28;20229;-78
2023/04/25 12:13:20;;;;;;;2.55;0.60;;;;;;;;;;10238721;28;20217;-80
2023/04/25 12:18:23;;;;;;;2.17;0.80;;;;;;;;;;10240627;28;20229;-78
2023/04/25 12:23:28;;;;;;;0.95;0.60;;;;;;;;;;10256445;28;20221;-78
2023/04/25 12:28:33;;;;;;;2.33;0.80;;;;;;;;;;10269767;28;20225;-78
2023/04/25 12:33:34;;;;;;;0.98;0.50;;;;;;;;;;10253066;28;20213;-77
2023/04/25 12:38:37;;;;;;;0.50;0.50;;;;;;;;;;10249858;28;20268;-77
2023/04/25 12:43:38;;;;;;;3.08;0.70;;;;;;;;;;10264669;28;20679;-79
2023/04/25 12:48:40;;;;;;;2.95;0.60;;;;;;;;;;10277326;28;20233;-79
2023/04/25 12:53:41;;;;;;;0.52;0.40;;;;;;;;;;10274397;28;20210;-80
2023/04/25 12:58:44;;;;;;;2.67;0.43;;;;;;;;;;10269856;28;20230;-78
2023/04/25 13:03:45;;;;;;;3.20;0.80;;;;;;;;;;10270558;28;20252;-77
2023/04/25 13:08:46;;;;;;;2.95;0.60;;;;;;;;;;10254063;28;20940;-77
2023/04/25 13:13:47;;;;;;;0.70;0.50;;;;;;;;;;10270449;28;20224;-75
2023/04/25 13:18:48;;;;;;;4.13;0.50;;;;;;;;;;10255325;28;20219;-80
2023/04/25 13:23:49;;;;;;;5.75;0.60;;;;;;;;;;10255289;28;20301;-77
2023/04/25 13:28:50;;;;;;;0.80;0.50;;;;;;;;;;10220708;28;20210;-79
2023/04/25 13:33:51;;;;;;;0.45;0.45;;;;;;;;;;10241803;28;20221;-78
2023/04/25 13:38:52;;;;;;;0.40;0.40;;;;;;;;;;10219125;28;21090;-79
2023/04/25 13:43:53;;;;;;;2.50;0.40;;;;;;;;;;10273658;28;20605;-76
2023/04/25 13:48:54;;;;;;;1.90;0.60;;;;;;;;;;10249888;28;20232;-76
2023/04/25 13:53:55;;;;;;;1.27;0.63;;;;;;;;;;10235513;28;20225;-75
2023/04/25 13:58:56;;;;;;;2.05;0.45;;;;;;;;;;10263670;28;20236;-78
2023/04/25 14:03:57;;;;;;;0.30;0.30;;;;;;;;;;10261255;28;20307;-80
2023/04/25 14:09:00;;;;;;;1.73;0.43;;;;;;;;;;10250241;28;20229;-76
2023/04/25 14:14:01;;;;;;;0.57;0.30;;;;;;;;;;10235532;28;20225;-80
2023/04/25 14:19:03;;;;;;;0.93;0.40;;;;;;;;;;10272258;28;20284;-79
2023/04/25 14:24:04;;;;;;;0.60;0.60;;;;;;;;;;10258473;28;20233;-79
2023/04/25 14:29:06;;;;;;;1.10;0.30;;;;;;;;;;10264019;28;20224;-77
2023/04/25 14:34:08;;;;;;;0.55;0.30;;;;;;;;;;10257106;28;20225;-79
2023/04/25 14:39:09;;;;;;;0.63;0.50;;;;;;;;;;10250644;28;20296;-77
2023/04/25 14:44:10;;;;;;;1.20;0.28;;;;;;;;;;10258102;28;20786;-79
2023/04/25 14:49:11;;;;;;;0.40;0.40;;;;;;;;;;10271316;28;20483;-78
2023/04/25 14:54:13;;;;;;;3.22;0.50;;;;;;;;;;10259593;28;20251;-79
2023/04/25 14:59:14;;;;;;;0.30;0.30;;;;;;;;;;10267209;28;20328;-76
2023/04/25 15:04:17;;;;;;;1.00;0.30;;;;;;;;;;10256651;28;20395;-79
2023/04/25 15:09:18;;;;;;;4.57;0.63;;;;;;;;;;10254153;28;20272;-80
2023/04/25 15:14:19;;;;;;;0.50;0.38;;;;;;;;;;10256680;28;20221;-78
2023/04/25 15:19:20;;;;;;;0.20;0.20;;;;;;;;;;10263658;28;20827;-80
2023/04/25 15:24:22;;;;;;;1.45;0.30;;;;;;;;;;10278720;28;20280;-80
2023/04/25 15:29:22;;;;;;;0.82;0.20;;;;;;;;;;10275284;28;20214;-78
2023/04/25 15:34:23;;;;;;;1.33;0.20;;;;;;;;;;10269447;28;20674;-79
2023/04/25 15:39:25;;;;;;;0.73;0.30;;;;;;;;;;10272464;28;20218;-80
2023/04/25 15:44:25;;;;;;;1.17;0.10;;;;;;;;;;10254845;28;20220;-79
2023/04/25 15:49:27;;;;;;;0.73;0.10;;;;;;;;;;10258597;28;20232;-80
2023/04/25 15:54:28;;;;;;;1.40;0.20;;;;;;;;;;10252814;28;20229;-78
2023/04/25 15:59:29;;;;;;;0.52;0.52;;;;;;;;;;10253981;28;20681;-77
2023/04/25 16:04:34;;;;;;;0.63;0.57;;;;;;;;;;10264972;28;20244;-78
2023/04/25 16:09:35;;;;;;;1.85;0.40;;;;;;;;;;10240303;28;20229;-77
2023/04/25 16:14:36;;;;;;;2.17;0.50;;;;;;;;;;10264858;28;20233;-77
2023/04/25 16:19:37;;;;;;;1.08;0.30;;;;;;;;;;10261685;28;20603;-79
2023/04/25 16:24:39;;;;;;;2.40;0.75;;;;;;;;;;10243631;28;20232;-77
2023/04/25 16:29:40;;;;;;;1.17;0.35;;;;;;;;;;10250852;28;20377;-81
2023/04/25 16:34:41;;;;;;;2.08;0.50;;;;;;;;;;10244355;28;20217;-76
2023/04/25 16:39:42;;;;;;;1.83;0.47;;;;;;;;;;10252256;28;20359;-79
2023/04/25 16:44:43;;;;;;;0.65;0.30;;;;;;;;;;10268021;28;20228;-79
2023/04/25 16:49:44;;;;;;;3.30;0.20;;;;;;;;;;10253640;28;20721;-78
2023/04/25 16:54:45;;;;;;;1.40;0.32;;;;;;;;;;10242401;28;20328;-78
2023/04/25 16:59:46;;;;;;;2.30;0.65;;;;;;;;;;10251382;28;20221;-78
2023/04/25 17:04:47;;;;;;;5.82;0.35;;;;;;;;;;10250363;28;20222;-77
2023/04/25 17:09:48;;;;;;;0.43;0.30;;;;;;;;;;10254285;28;20253;-80
2023/04/25 17:14:50;;;;;;;1.95;0.40;;;;;;;;;;10250207;28;20228;-78
2023/04/25 17:19:51;;;;;;;0.80;0.35;;;;;;;;;;10253399;28;20280;-77
2023/04/25 17:24:53;;;;;;;1.08;0.47;;;;;;;;;;10249856;28;20229;-78
2023/04/25 17:29:54;;;;;;;0.45;0.40;;;;;;;;;;10252818;28;20779;-78
2023/04/25 17:34:56;;;;;;;0.60;0.45;;;;;;;;;;10251840;28;20295;-76
2023/04/25 17:39:57;;;;;;;6.57;0.30;;;;;;;;;;10248046;28;20642;-79
2023/04/25 17:44:58;;;;;;;2.28;0.60;;;;;;;;;;10254851;28;20225;-75
2023/04/25 17:49:59;;;;;;;2.00;0.40;;;;;;;;;;10249178;28;20251;-79
2023/04/25 17:55:00;;;;;;;0.20;0.20;;;;;;;;;;10254373;28;20258;-77
2023/04/25 18:00:02;;;;;;;0.90;0.30;;;;;;;;;;10221568;28;20633;-80
2023/04/25 18:05:14;;;;;;;0.90;0.43;;;;;;;;;;10237264;28;20804;-78
2023/04/25 18:10:16;;;;;;;3.10;0.38;;;;;;;;;;10291821;28;20293;-80
2023/04/25 18:15:17;;;;;;;0.43;0.30;;;;;;;;;;10292956;28;20206;-79
2023/04/25 18:20:20;;;;;;;1.75;0.28;;;;;;;;;;10248615;28;20212;-79
2023/04/25 18:25:21;;;;;;;0.30;0.30;;;;;;;;;;10242006;28;20221;-79
2023/04/25 18:30:22;;;;;;;6.03;0.40;;;;;;;;;;10246722;28;20202;-79
2023/04/25 18:35:23;;;;;;;3.50;0.30;;;;;;;;;;10235781;28;20209;-78
2023/04/25 18:40:24;;;;;;;3.30;0.40;;;;;;;;;;10243877;28;20231;-80
2023/04/25 18:45:25;;;;;;;0.20;0.20;;;;;;;;;;10239256;28;20210;-81
2023/04/25 18:50:26;;;;;;;1.55;0.57;;;;;;;;;;10246858;28;20232;-78
2023/04/25 18:55:28;;;;;;;2.60;0.57;;;;;;;;;;10258408;28;20296;-79
2023/04/25 19:00:29;;;;;;;2.40;0.60;;;;;;;;;;10243732;28;20221;-79
2023/04/25 19:05:30;;;;;;;1.52;0.63;;;;;;;;;;10243346;28;20217;-79
2023/04/25 19:10:31;;;;;;;2.72;0.50;;;;;;;;;;10228118;28;20312;-78
2023/04/25 19:15:33;;;;;;;3.05;0.30;;;;;;;;;;10238611;28;20225;-79
2023/04/25 19:20:34;;;;;;;1.05;0.40;;;;;;;;;;10254640;28;20221;-80
2023/04/25 19:25:35;;;;;;;2.30;0.30;;;;;;;;;;10241921;28;20293;-79
2023/04/25 19:30:37;;;;;;;0.20;0.20;;;;;;;;;;10256309;28;20296;-79
2023/04/25 19:35:38;;;;;;;0.95;0.30;;;;;;;;;;10226756;28;20240;-80
2023/04/25 19:40:39;;;;;;;0.40;0.40;;;;;;;;;;10239330;28;20645;-80
2023/04/25 19:45:40;;;;;;;0.43;0.30;;;;;;;;;;10245868;28;20235;-79
2023/04/25 19:50:41;;;;;;;0.63;0.40;;;;;;;;;;10261781;28;20225;-80
2023/04/25 19:55:42;;;;;;;0.95;0.40;;;;;;;;;;10270663;28;20248;-79
2023/04/25 20:00:43;;;;;;;1.27;0.50;;;;;;;;;;10240348;28;20226;-79
2023/04/25 20:05:44;;;;;;;0.57;0.57;;;;;;;;;;10238726;28;20236;-79
2023/04/25 20:10:46;;;;;;;1.60;0.50;;;;;;;;;;10263244;28;20221;-76
2023/04/25 20:15:47;;;;;;;0.70;0.60;;;;;;;;;;10278236;28;20274;-78
2023/04/25 20:20:48;;;;;;;2.80;0.63;;;;;;;;;;10269598;28;20244;-78
2023/04/25 20:25:50;;;;;;;0.52;0.40;;;;;;;;;;10279033;28;20218;-79
2023/04/25 20:30:51;;;;;;;3.05;0.70;;;;;;;;;;10260757;28;20236;-77
2023/04/25 20:35:53;;;;;;;0.77;0.30;;;;;;;;;;10246158;28;20224;-79
2023/04/25 20:40:55;;;;;;;0.90;0.50;;;;;;;;;;10263028;28;20719;-76
2023/04/25 20:45:57;;;;;;;2.70;0.80;;;;;;;;;;10260292;28;20310;-78
2023/04/25 20:50:59;;;;;;;0.68;0.47;;;;;;;;;;10266916;28;20217;-78
2023/04/25 20:56:01;;;;;;;1.13;0.50;;;;;;;;;;10276114;28;20293;-78
2023/04/25 21:01:03;;;;;;;1.00;0.40;;;;;;;;;;10282556;28;20233;-79
2023/04/25 21:06:04;;;;;;;1.83;0.68;;;;;;;;;;10257478;28;21773;-77
2023/04/25 21:11:05;;;;;;;0.85;0.65;;;;;;;;;;10259306;28;20326;-76
2023/04/25 21:16:06;;;;;;;0.65;0.40;;;;;;;;;;10259772;28;20218;-78
2023/04/25 21:21:07;;;;;;;1.42;0.30;;;;;;;;;;10256873;28;20221;-78
2023/04/25 21:26:08;;;;;;;1.63;0.52;;;;;;;;;;10256996;28;20320;-76
2023/04/25 21:31:09;;;;;;;1.58;0.40;;;;;;;;;;10260697;28;20289;-79
2023/04/25 21:36:10;;;;;;;2.50;0.60;;;;;;;;;;10266015;28;20277;-78
2023/04/25 21:41:11;;;;;;;1.95;0.47;;;;;;;;;;10275860;28;20303;-76
2023/04/25 21:46:12;;;;;;;3.88;0.40;;;;;;;;;;10265173;28;20221;-79
2023/04/25 21:51:13;;;;;;;1.85;0.47;;;;;;;;;;10274868;28;20229;-80
2023/04/25 21:56:15;;;;;;;0.80;0.57;;;;;;;;;;10257905;28;20332;-78
2023/04/25 22:01:16;;;;;;;4.13;0.93;;;;;;;;;;10259792;28;20786;-78
2023/04/25 22:06:17;;;;;;;0.88;0.70;;;;;;;;;;10277446;28;20232;-79
2023/04/25 22:11:17;;;;;;;0.95;0.70;;;;;;;;;;10262658;28;20224;-76
2023/04/25 22:16:19;;;;;;;0.73;0.70;;;;;;;;;;10261381;28;20221;-80
2023/04/25 22:21:21;;;;;;;5.30;1.17;;;;;;;;;;10260247;28;20675;-78
2023/04/25 22:26:24;;;;;;;0.50;0.50;;;;;;;;;;10265678;28;20209;-76
2023/04/25 22:31:25;;;;;;;0.85;0.70;;;;;;;;;;10260399;28;20279;-79
2023/04/25 22:36:26;;;;;;;6.50;0.85;;;;;;;;;;10261370;28;20233;-79
2023/04/25 22:41:27;;;;;;;2.78;0.60;;;;;;;;;;10261179;28;20216;-80
2023/04/25 22:46:28;;;;;;;3.05;1.00;;;;;;;;;;10256704;28;20218;-77
2023/04/25 22:51:29;;;;;;;2.08;0.68;;;;;;;;;;10262884;28;20297;-78
2023/04/25 22:56:31;;;;;;;0.50;0.50;;;;;;;;;;10254946;28;20226;-80
2023/04/25 23:01:32;;;;;;;0.70;0.70;;;;;;;;;;10257427;28;20225;-79
2023/04/25 23:06:33;;;;;;;7.05;0.93;;;;;;;;;;10253959;28;20275;-76
2023/04/25 23:11:35;;;;;;;3.60;0.93;;;;;;;;;;10257677;28;20218;-79
2023/04/25 23:16:36;;;;;;;3.80;1.15;;;;;;;;;;10272014;28;20221;-79
2023/04/25 23:21:38;;;;;;;0.85;0.75;;;;;;;;;;10259360;28;20221;-78
2023/04/25 23:26:41;;;;;;;5.45;1.20;;;;;;;;;;10258470;28;20213;-78
2023/04/25 23:31:42;;;;;;;3.38;1.20;;;;;;;;;;10256743;28;20213;-78
2023/04/25 23:36:43;;;;;;;1.10;1.08;;;;;;;;;;10267206;28;20222;-78
2023/04/25 23:41:44;;;;;;;2.70;0.98;;;;;;;;;;10288127;28;20217;-77
2023/04/25 23:46:45;;;;;;;1.88;0.60;;;;;;;;;;10278222;28;20302;-78
2023/04/25 23:51:46;;;;;;;0.45;0.43;;;;;;;;;;10274620;28;20331;-77
2023/04/25 23:56:47;;;;;;;3.80;1.25;;;;;;;;;;10270110;28;20225;-74
